地図

経路データ

SID SEASON NUMBER BASIN SUBBASIN NAME ISO_TIME NATURE LAT LON WMO_WIND WMO_PRES WMO_AGENCY TRACK_TYPE DIST2LAND LANDFALL IFLAG USA_AGENCY USA_ATCF_ID USA_LAT USA_LON USA_RECORD USA_STATUS USA_WIND USA_PRES USA_SSHS USA_R34_NE USA_R34_SE USA_R34_SW USA_R34_NW USA_R50_NE USA_R50_SE USA_R50_SW USA_R50_NW USA_R64_NE USA_R64_SE USA_R64_SW USA_R64_NW USA_POCI USA_ROCI USA_RMW USA_EYE TOKYO_LAT TOKYO_LON TOKYO_GRADE TOKYO_WIND TOKYO_PRES TOKYO_R50_DIR TOKYO_R50_LONG TOKYO_R50_SHORT TOKYO_R30_DIR TOKYO_R30_LONG TOKYO_R30_SHORT TOKYO_LAND CMA_LAT CMA_LON CMA_CAT CMA_WIND CMA_PRES HKO_LAT HKO_LON HKO_CAT HKO_WIND HKO_PRES NEWDELHI_LAT NEWDELHI_LON NEWDELHI_GRADE NEWDELHI_WIND NEWDELHI_PRES NEWDELHI_CI NEWDELHI_DP NEWDELHI_POCI REUNION_LAT REUNION_LON REUNION_TYPE REUNION_WIND REUNION_PRES REUNION_TNUM REUNION_CI REUNION_RMW REUNION_R34_NE REUNION_R34_SE REUNION_R34_SW REUNION_R34_NW REUNION_R50_NE REUNION_R50_SE REUNION_R50_SW REUNION_R50_NW REUNION_R64_NE REUNION_R64_SE REUNION_R64_SW REUNION_R64_NW BOM_LAT BOM_LON BOM_TYPE BOM_WIND BOM_PRES BOM_TNUM BOM_CI BOM_RMW BOM_R34_NE BOM_R34_SE BOM_R34_SW BOM_R34_NW BOM_R50_NE BOM_R50_SE BOM_R50_SW BOM_R50_NW BOM_R64_NE BOM_R64_SE BOM_R64_SW BOM_R64_NW BOM_ROCI BOM_POCI BOM_EYE BOM_POS_METHOD BOM_PRES_METHOD NADI_LAT NADI_LON NADI_CAT NADI_WIND NADI_PRES WELLINGTON_LAT WELLINGTON_LON WELLINGTON_WIND WELLINGTON_PRES DS824_LAT DS824_LON DS824_STAGE DS824_WIND DS824_PRES TD9636_LAT TD9636_LON TD9636_STAGE TD9636_WIND TD9636_PRES TD9635_LAT TD9635_LON TD9635_WIND TD9635_PRES TD9635_ROCI NEUMANN_LAT NEUMANN_LON NEUMANN_CLASS NEUMANN_WIND NEUMANN_PRES MLC_LAT MLC_LON MLC_CLASS MLC_WIND MLC_PRES USA_GUST BOM_GUST BOM_GUST_PER REUNION_GUST REUNION_GUST_PER USA_SEAHGT USA_SEARAD_NE USA_SEARAD_SE USA_SEARAD_SW USA_SEARAD_NW STORM_SPEED STORM_DIR
1987304S04086 1988 92 SI MM NOT_NAMED 1987-10-31 06:00:00 TS -3.80000 86.2000 main 1245 1231 O_________O_O_ jtwc_sh SH011988 -3.80000 86.2000 25 -1 -3.80000 86.2000 1 25 -3.80000 86.2000 TC 25 11 261
1987304S04086 1988 92 SI MM NOT_NAMED 1987-10-31 09:00:00 TS -3.89160 85.6408 main 1228 1216 P_________P_P_ SH011988 -3.89758 85.6400 25 -1 -3.87964 85.6423 1 25 -3.89758 85.6400 TC 25 11 260
1987304S04086 1988 92 SI MM NOT_NAMED 1987-10-31 12:00:00 TS -4.00000 85.1000 main 1216 1205 O_________O_O_ jtwc_sh SH011988 -4.00000 85.1000 25 -1 -4.00000 85.1000 1 25 -4.00000 85.1000 TC 25 11 257
1987304S04086 1988 92 SI MM NOT_NAMED 1987-10-31 15:00:00 TS -4.14314 84.5896 main 1205 1204 P_________P_P_ SH011988 -4.11996 84.5924 25 -1 -4.18951 84.5839 1 25 -4.11996 84.5924 TC 25 11 251
1987304S04086 1988 92 SI MM NOT_NAMED 1987-10-31 18:00:00 TS -4.34198 84.0955 main 1207 1207 O_________P_O_ jtwc_sh SH011988 -4.30000 84.1000 25 -1 -4.42595 84.0865 1 25 -4.30000 84.1000 TC 25 11 244
1987304S04086 1988 92 SI MM NOT_NAMED 1987-10-31 21:00:00 TS -4.61977 83.6036 main 1222 1222 P_________P_P_ SH011988 -4.59245 83.6075 25 -1 -4.67442 83.5958 1 25 -4.59245 83.6075 TC 25 11 241
1987304S04086 1988 92 SI MM NOT_NAMED 1987-11-01 00:00:00 TS -4.90000 83.1000 main 1241 1239 O_________O_O_ jtwc_sh SH011988 -4.90000 83.1000 25 -1 -4.90000 83.1000 1 25 -4.90000 83.1000 TC 25 11 245
1987304S04086 1988 92 SI MM NOT_NAMED 1987-11-01 03:00:00 TS -5.11223 82.5648 main 1252 1250 P_________P_P_ SH011988 -5.13749 82.5500 27 -1 -5.06170 82.5942 1 26 -5.13749 82.5500 TC 27 11 251
1987304S04086 1988 92 SI MM NOT_NAMED 1987-11-01 06:00:00 TS -5.26491 82.0266 main 1264 1259 O_________P_O_ jtwc_sh SH011988 -5.30000 82.0000 30 -1 -5.19474 82.0798 1 27 -5.30000 82.0000 TC 30 11 257
1987304S04086 1988 92 SI MM NOT_NAMED 1987-11-01 09:00:00 TS -5.34509 81.5168 main 1259 1259 P_________P_P_ SH011988 -5.36492 81.4999 30 -1 -5.30542 81.5505 1 28 -5.36492 81.4999 TC 30 10 262
1987304S04086 1988 92 SI MM NOT_NAMED 1987-11-01 12:00:00 TS -5.40000 81.0000 main 1267 1266 O_________O_O_ jtwc_sh SH011988 -5.40000 81.0000 30 -1 -5.40000 81.0000 1 30 -5.40000 81.0000 TC 30 11 262
1987304S04086 1988 92 SI MM NOT_NAMED 1987-11-01 15:00:00 TS -5.49506 80.4501 main 1277 1277 P_________P_P_ SH011988 -5.49993 80.4725 32 -1 -5.48534 80.4052 1 31 -5.49993 80.4725 TC 32 11 261
1987304S04086 1988 92 SI MM NOT_NAMED 1987-11-01 18:00:00 TS -5.58585 79.8641 main 1291 1291 O_________P_O_ jtwc_sh SH011988 -5.60000 79.9000 35 0 -5.55756 79.7924 1 32 -5.60000 79.9000 TC 35 12 263
1987304S04086 1988 92 SI MM NOT_NAMED 1987-11-01 21:00:00 TS -5.64201 79.2277 main 1298 1298 P_________P_P_ SH011988 -5.65002 79.2500 35 0 -5.62597 79.1833 1 33 -5.65002 79.2500 TC 35 13 265
1987304S04086 1988 92 SI MM NOT_NAMED 1987-11-02 00:00:00 TS -5.70000 78.6000 main 1318 1318 O_________O_O_ jtwc_sh SH011988 -5.70000 78.6000 35 0 -5.70000 78.6000 2 35 -5.70000 78.6000 TC 35 12 263
1987304S04086 1988 92 SI MM NOT_NAMED 1987-11-02 03:00:00 TS -5.79116 78.0303 main 1342 1342 P_________P_P_ SH011988 -5.79244 78.0200 35 0 -5.78860 78.0510 2 36 -5.79244 78.0200 TC 35 11 260
1987304S04086 1988 92 SI MM NOT_NAMED 1987-11-02 06:00:00 TS -5.89494 77.5108 main 1366 1366 O_________P_O_ jtwc_sh SH011988 -5.90000 77.5000 35 0 -5.88483 77.5325 2 37 -5.90000 77.5000 TC 35 10 259
1987304S04086 1988 92 SI MM NOT_NAMED 1987-11-02 09:00:00 TS -5.99118 77.0342 main 1392 1392 P_________P_P_ SH011988 -5.99244 77.0275 37 0 -5.98865 77.0478 2 38 -5.99244 77.0275 TC 37 9 257
1987304S04086 1988 92 SI MM NOT_NAMED 1987-11-02 12:00:00 TS -6.10000 76.6000 main 1416 1416 O_________O_O_ jtwc_sh SH011988 -6.10000 76.6000 40 0 -6.10000 76.6000 2 40 -6.10000 76.6000 TC 40 9 254
1987304S04086 1988 92 SI MM NOT_NAMED 1987-11-02 15:00:00 TS -6.23783 76.1836 main 1441 1441 P_________P_P_ SH011988 -6.24997 76.1850 42 0 -6.21356 76.1809 2 41 -6.24997 76.1850 TC 42 8 251
1987304S04086 1988 92 SI MM NOT_NAMED 1987-11-02 18:00:00 TS -6.37826 75.7991 main 1476 1476 O_________P_O_ jtwc_sh SH011988 -6.40000 75.8000 45 0 -6.33477 75.7974 2 42 -6.40000 75.8000 TC 45 8 251
1987304S04086 1988 92 SI MM NOT_NAMED 1987-11-02 21:00:00 TS -6.48785 75.4367 main 1502 1502 P_________P_P_ SH011988 -6.49997 75.4350 45 0 -6.46360 75.4403 2 43 -6.49997 75.4350 TC 45 7 252
1987304S04086 1988 92 SI MM NOT_NAMED 1987-11-03 00:00:00 TS -6.60000 75.1000 main 1525 1525 O_________O_O_ jtwc_sh SH011988 -6.60000 75.1000 45 0 -6.60000 75.1000 2 45 -6.60000 75.1000 TC 45 7 249
1987304S04086 1988 92 SI MM NOT_NAMED 1987-11-03 03:00:00 TS -6.73985 74.7801 main 1548 1548 P_________P_P_ SH011988 -6.74245 74.8000 45 0 -6.73466 74.7403 2 45 -6.74245 74.8000 TC 45 7 245
1987304S04086 1988 92 SI MM NOT_NAMED 1987-11-03 06:00:00 TS -6.89249 74.4658 main 1582 1582 O_________P_O_ jtwc_sh SH011988 -6.90000 74.5000 45 0 -6.87748 74.3975 2 45 -6.90000 74.5000 TC 45 7 246
1987304S04086 1988 92 SI MM NOT_NAMED 1987-11-03 09:00:00 TS -7.03888 74.1170 main 1611 1611 P_________P_P_ SH011988 -7.04253 74.1350 45 0 -7.03156 74.0809 2 45 -7.04253 74.1350 TC 45 7 245
1987304S04086 1988 92 SI MM NOT_NAMED 1987-11-03 12:00:00 TS -7.20000 73.8000 main 1645 1645 O_________O_O_ jtwc_sh SH011988 -7.20000 73.8000 45 0 -7.20000 73.8000 2 45 -7.20000 73.8000 TC 45 6 237
1987304S04086 1988 92 SI MM NOT_NAMED 1987-11-03 15:00:00 TS -7.38473 73.5703 main 1675 1675 P_________P_P_ SH011988 -7.39245 73.5775 45 0 -7.36928 73.5558 2 43 -7.39245 73.5775 TC 45 6 227
1987304S04086 1988 92 SI MM NOT_NAMED 1987-11-03 18:00:00 TS -7.58496 73.3825 main 1705 1705 O_________P_O_ jtwc_sh SH011988 -7.60000 73.4000 45 0 -7.55489 73.3474 2 42 -7.60000 73.4000 TC 45 5 224
1987304S04086 1988 92 SI MM NOT_NAMED 1987-11-03 21:00:00 TS -7.77768 73.1884 main 1735 1735 P_________P_P_ SH011988 -7.78499 73.2000 42 0 -7.76306 73.1652 2 41 -7.78499 73.2000 TC 42 6 222
1987304S04086 1988 92 SI MM NOT_NAMED 1987-11-04 00:00:00 TS -8.00000 73.0000 main 1765 1765 O_________O_O_ jtwc_sh SH011988 -8.00000 73.0000 40 0 -8.00000 73.0000 2 40 -8.00000 73.0000 TC 40 6 217
1987304S04086 1988 92 SI MM NOT_NAMED 1987-11-04 03:00:00 TS -8.28309 72.8086 main 1805 1805 P_________P_P_ SH011988 -8.28501 72.7850 40 0 -8.27926 72.8558 2 40 -8.28501 72.7850 TC 40 7 211
1987304S04086 1988 92 SI MM NOT_NAMED 1987-11-04 06:00:00 TS -8.59494 72.6408 main 1845 1845 O_________P_O_ jtwc_sh SH011988 -8.60000 72.6000 40 0 -8.58483 72.7223 2 40 -8.60000 72.6000 TC 40 7 204
1987304S04086 1988 92 SI MM NOT_NAMED 1987-11-04 09:00:00 TS -8.88930 72.5308 main 1880 1880 P_________P_P_ SH011988 -8.88496 72.5074 40 0 -8.89799 72.5776 2 40 -8.88496 72.5074 TC 40 7 201
1987304S04086 1988 92 SI MM NOT_NAMED 1987-11-04 12:00:00 TS -9.20000 72.4000 main 1915 1915 O_________O_O_ jtwc_sh SH011988 -9.20000 72.4000 40 0 -9.20000 72.4000 2 40 -9.20000 72.4000 TC 40 8 207
1987304S04086 1988 92 SI MM NOT_NAMED 1987-11-04 15:00:00 TS -9.58294 72.1724 main 1950 1903 P_________P_P_ SH011988 -9.63000 72.1801 40 0 -9.48881 72.1570 2 41 -9.63000 72.1801 TC 40 9 215
1987304S04086 1988 92 SI MM NOT_NAMED 1987-11-04 18:00:00 TS -9.92003 71.8934 main 1903 1863 O_________P_O_ jtwc_sh SH011988 -10.0000 71.9000 40 0 -9.76008 71.8802 2 42 -10.0000 71.9000 TC 40 8 228
1987304S04086 1988 92 SI MM NOT_NAMED 1987-11-04 21:00:00 TS -10.0971 71.6010 main 1863 1831 P_________P_P_ SH011988 -10.1450 71.6074 42 0 -10.0013 71.5883 2 43 -10.1450 71.6074 TC 42 6 244
1987304S04086 1988 92 SI MM NOT_NAMED 1987-11-05 00:00:00 TS -10.2000 71.3000 main 1831 1798 O_________O_O_ jtwc_sh SH011988 -10.2000 71.3000 45 0 -10.2000 71.3000 2 45 -10.2000 71.3000 TC 45 6 250
1987304S04086 1988 92 SI MM NOT_NAMED 1987-11-05 03:00:00 TS -10.3116 71.0042 main 1798 1766 P_________P_P_ SH011988 -10.3000 70.9850 45 0 -10.3349 71.0425 2 45 -10.3000 70.9850 TC 45 6 249
1987304S04086 1988 92 SI MM NOT_NAMED 1987-11-05 06:00:00 TS -10.4100 70.7307 main 1766 1742 O_________P_O_ jtwc_sh SH011988 -10.4000 70.7000 45 0 -10.4299 70.7921 2 45 -10.4000 70.7000 TC 45 5 248
1987304S04086 1988 92 SI MM NOT_NAMED 1987-11-05 09:00:00 TS -10.5033 70.5102 main 1742 1718 P_________P_P_ SH011988 -10.4999 70.4925 45 0 -10.5099 70.5457 2 45 -10.4999 70.4925 TC 45 5 246
1987304S04086 1988 92 SI MM NOT_NAMED 1987-11-05 12:00:00 TS -10.6000 70.3000 main 1718 1694 O_________O_O_ jtwc_sh SH011988 -10.6000 70.3000 45 0 -10.6000 70.3000 2 45 -10.6000 70.3000 TC 45 5 246
1987304S04086 1988 92 SI MM NOT_NAMED 1987-11-05 15:00:00 TS -10.7046 70.0536 main 1694 1661 P_________P_P_ SH011988 -10.6850 70.0575 45 0 -10.7437 70.0460 2 45 -10.6850 70.0575 TC 45 5 245
1987304S04086 1988 92 SI MM NOT_NAMED 1987-11-05 18:00:00 TS -10.8333 69.7975 main 1661 1630 O_________P_O_ jtwc_sh SH011988 -10.8000 69.8000 45 0 -10.9000 69.7926 2 45 -10.8000 69.8000 TC 45 6 238
1987304S04086 1988 92 SI MM NOT_NAMED 1987-11-05 21:00:00 TS -11.0187 69.5476 main 1622 1591 P_________P_P_ SH011988 -11.0000 69.5500 45 0 -11.0562 69.5429 2 45 -11.0000 69.5500 TC 45 6 233
1987304S04086 1988 92 SI MM NOT_NAMED 1987-11-06 00:00:00 TS -11.2000 69.3000 main 1591 1567 O_________O_O_ jtwc_sh SH011988 -11.2000 69.3000 45 0 -11.2000 69.3000 2 45 -11.2000 69.3000 TC 45 6 239
1987304S04086 1988 92 SI MM NOT_NAMED 1987-11-06 03:00:00 TS -11.3161 69.0509 main 1567 1535 P_________P_P_ SH011988 -11.3150 69.0425 45 0 -11.3184 69.0677 2 45 -11.3150 69.0425 TC 45 5 246
1987304S04086 1988 92 SI MM NOT_NAMED 1987-11-06 06:00:00 TS -11.4075 68.8141 main 1535 1511 O_________P_O_ jtwc_sh SH011988 -11.4000 68.8000 45 0 -11.4224 68.8424 2 45 -11.4000 68.8000 TC 45 5 247
1987304S04086 1988 92 SI MM NOT_NAMED 1987-11-06 09:00:00 TS -11.5051 68.6019 main 1511 1487 P_________P_P_ SH011988 -11.5000 68.5925 45 0 -11.5152 68.6209 2 45 -11.5000 68.5925 TC 45 5 245
1987304S04086 1988 92 SI MM NOT_NAMED 1987-11-06 12:00:00 TS -11.6000 68.4000 main 1487 1463 O_________O_O_ jtwc_sh SH011988 -11.6000 68.4000 45 0 -11.6000 68.4000 2 45 -11.6000 68.4000 TC 45 4 245
1987304S04086 1988 92 SI MM NOT_NAMED 1987-11-06 15:00:00 TS -11.6936 68.1980 main 1463 1439 P_________P_P_ SH011988 -11.7075 68.2075 47 0 -11.6659 68.1789 2 47 -11.7075 68.2075 TC 47 4 247
1987304S04086 1988 92 SI MM NOT_NAMED 1987-11-06 18:00:00 TS -11.7758 67.9857 main 1439 1423 O_________P_O_ jtwc_sh SH011988 -11.8000 68.0000 50 0 -11.7274 67.9572 2 50 -11.8000 68.0000 TC 50 5 253
1987304S04086 1988 92 SI MM NOT_NAMED 1987-11-06 21:00:00 TS -11.8284 67.7440 main 1415 1392 P_________P_P_ SH011988 -11.8425 67.7499 52 0 -11.8002 67.7320 2 52 -11.8425 67.7499 TC 52 5 255
1987304S04086 1988 92 SI MM NOT_NAMED 1987-11-07 00:00:00 TS -11.9000 67.5000 main 1392 1368 O_________O_O_ jtwc_sh SH011988 -11.9000 67.5000 55 0 -11.9000 67.5000 2 55 -11.9000 67.5000 TC 55 5 245
1987304S04086 1988 92 SI MM NOT_NAMED 1987-11-07 03:00:00 TS -12.0377 67.2921 main 1368 1337 P_________P_P_ SH011988 -12.0274 67.3074 55 0 -12.0584 67.2614 2 53 -12.0274 67.3074 TC 55 5 233
1987304S04086 1988 92 SI MM NOT_NAMED 1987-11-07 06:00:00 TS -12.2141 67.0717 main 1337 1298 O_________P_O_ jtwc_sh SH011988 -12.2000 67.1000 55 0 -12.2424 67.0152 2 52 -12.2000 67.1000 TC 55 6 232
1987304S04086 1988 92 SI MM NOT_NAMED 1987-11-07 09:00:00 TS -12.4151 66.7922 main 1298 1258 P_________P_P_ SH011988 -12.4075 66.8076 52 0 -12.4302 66.7614 2 51 -12.4075 66.8076 TC 52 7 235
1987304S04086 1988 92 SI MM NOT_NAMED 1987-11-07 12:00:00 TS -12.6000 66.5000 main 1258 1235 O_________O_O_ jtwc_sh SH011988 -12.6000 66.5000 50 0 -12.6000 66.5000 2 50 -12.6000 66.5000 TC 50 6 240
1987304S04086 1988 92 SI MM NOT_NAMED 1987-11-07 15:00:00 TS -12.7252 66.2508 main 1235 1204 P_________P_P_ SH011988 -12.7149 66.2499 50 0 -12.7457 66.2525 2 50 -12.7149 66.2499 TC 50 5 246
1987304S04086 1988 92 SI MM NOT_NAMED 1987-11-07 18:00:00 TS -12.8224 65.9984 main 1204 1172 O_________P_O_ jtwc_sh SH011988 -12.8000 66.0000 50 0 -12.8672 65.9951 2 50 -12.8000 66.0000 TC 50 6 248
1987304S04086 1988 92 SI MM NOT_NAMED 1987-11-07 21:00:00 TS -12.9333 65.7201 main 1172 1142 P_________P_P_ SH011988 -12.9224 65.7226 50 0 -12.9550 65.7151 2 50 -12.9224 65.7226 TC 50 6 253
1987304S04086 1988 92 SI MM NOT_NAMED 1987-11-08 00:00:00 TS -13.0000 65.4000 main 1142 1111 O_________O_O_ jtwc_sh SH011988 -13.0000 65.4000 50 0 -13.0000 65.4000 2 50 -13.0000 65.4000 TC 50 7 266
1987304S04086 1988 92 SI MM NOT_NAMED 1987-11-08 03:00:00 TS -12.9862 65.0151 main 1111 1090 P_________P_P_ SH011988 -12.9725 65.0149 47 0 -13.0137 65.0155 2 48 -12.9725 65.0149 TC 47 8 275
1987304S04086 1988 92 SI MM NOT_NAMED 1987-11-08 06:00:00 TS -12.9276 64.6000 main 1090 1062 O_________P_O_ jtwc_sh SH011988 -12.9000 64.6000 45 0 -12.9829 64.5999 2 47 -12.9000 64.6000 TC 45 8 277
1987304S04086 1988 92 SI MM NOT_NAMED 1987-11-08 09:00:00 TS -12.8802 64.1848 main 1062 1044 P_________P_P_ SH011988 -12.8650 64.1851 45 0 -12.9106 64.1843 2 46 -12.8650 64.1851 TC 45 8 279
1987304S04086 1988 92 SI MM NOT_NAMED 1987-11-08 12:00:00 TS -12.8000 63.8000 main 1044 1033 O_________O_O_ jtwc_sh SH011988 -12.8000 63.8000 45 0 -12.8000 63.8000 2 45 -12.8000 63.8000 TC 45 7 287
1987304S04086 1988 92 SI MM NOT_NAMED 1987-11-08 15:00:00 TS -12.6631 63.4786 main 1033 1030 P_________P_P_ SH011988 -12.6724 63.4775 40 0 -12.6444 63.4808 2 43 -12.6724 63.4775 TC 40 7 298
1987304S04086 1988 92 SI MM NOT_NAMED 1987-11-08 18:00:00 TS -12.4857 63.1991 main 1033 1030 O_________P_O_ jtwc_sh SH011988 -12.5000 63.2000 35 0 -12.4572 63.1973 2 42 -12.5000 63.2000 TC 35 7 306
1987304S04086 1988 92 SI MM NOT_NAMED 1987-11-08 21:00:00 TS -12.2838 62.9367 main 1034 1034 P_________P_P_ SH011988 -12.2925 62.9350 37 0 -12.2664 62.9402 2 41 -12.2925 62.9350 TC 37 6 308
1987304S04086 1988 92 SI MM NOT_NAMED 1987-11-09 00:00:00 TS -12.1000 62.7000 main 1042 1036 O_________O_O_ jtwc_sh SH011988 -12.1000 62.7000 40 0 -12.1000 62.7000 2 40 -12.1000 62.7000 TC 40 5 305
1987304S04086 1988 92 SI MM NOT_NAMED 1987-11-09 03:00:00 TS -11.9823 62.4891 main 1041 1036 P_________P_P_ SH011988 -11.9775 62.5000 37 0 -11.9921 62.4671 2 38 -11.9775 62.5000 TC 37 5 296
1987304S04086 1988 92 SI MM NOT_NAMED 1987-11-09 06:00:00 TS -11.9041 62.2823 main 1040 1031 O_________P_O_ jtwc_sh SH011988 -11.9000 62.3000 35 0 -11.9123 62.2468 2 37 -11.9000 62.3000 TC 35 5 288
1987304S04086 1988 92 SI MM NOT_NAMED 1987-11-09 09:00:00 TS -11.8455 62.0477 main 1036 1027 P_________P_P_ SH011988 -11.8425 62.0575 35 0 -11.8515 62.0281 2 36 -11.8425 62.0575 TC 35 5 282
1987304S04086 1988 92 SI MM NOT_NAMED 1987-11-09 12:00:00 TS -11.8000 61.8000 main 1027 1018 O_________O_O_ jtwc_sh SH011988 -11.8000 61.8000 35 0 -11.8000 61.8000 2 35 -11.8000 61.8000 TC 35 5 281
1987304S04086 1988 92 SI MM NOT_NAMED 1987-11-09 15:00:00 TS -11.7517 61.5500 main 1018 1015 P_________P_P_ SH011988 -11.7525 61.5475 35 0 -11.7501 61.5551 2 35 -11.7525 61.5475 TC 35 5 282
1987304S04086 1988 92 SI MM NOT_NAMED 1987-11-09 18:00:00 TS -11.7000 61.3000 main 1015 O_________O_O_ jtwc_sh SH011988 -11.7000 61.3000 35 0 -11.7000 61.3000 2 35 -11.7000 61.3000 TC 35 5 282

IBTrACS Databaseについて

本データベースは、米国NOAAが公開する1842年以降の世界の熱帯低気圧のベストトラックデータアーカイブInternational Best Track Archive for Climate Stewardship (IBTrACS)を、ウェブで閲覧しやすい形式に変換したものです。

最終更新日:2021-11-26